Time;durP1;ratioP1;P1;durP2;ratioP2;P2;SDS_P1;SDS_P2;PMS_P1;PMS_P2;Temp;Humidity;BMP_temperature;BMP_pressure;BME280_temperature;BME280_humidity;BME280_pressure;Samples;Min_cycle;Max_cycle;Signal;HPM_P1;HPM_P2
2022/06/03 00:00:16;;;;;;;20.02;4.70;;;;;;;14.19;100.00;98158.88;5036422;28;20662;-57
2022/06/03 00:03:16;;;;;;;15.88;3.80;;;;;;;14.18;100.00;98159.84;5049344;28;20459;-57
2022/06/03 00:06:00;;;;;;;16.15;3.95;;;;;;;14.31;100.00;98158.25;5045372;28;20037;-58
2022/06/03 00:08:31;;;;;;;15.70;3.90;;;;;;;13.83;100.00;98154.66;5048681;28;20055;-58
2022/06/03 00:11:37;;;;;;;16.60;4.07;;;;;;;13.89;100.00;98146.47;5045524;28;20051;-58
2022/06/03 00:14:19;;;;;;;15.15;3.65;;;;;;;14.33;100.00;98145.03;5049098;28;20021;-57
2022/06/03 00:16:59;;;;;;;15.88;3.65;;;;;;;14.13;100.00;98146.09;5048048;28;20040;-58
2022/06/03 00:19:51;;;;;;;17.10;3.85;;;;;;;14.12;100.00;98144.44;5046946;28;20029;-57
2022/06/03 00:22:57;;;;;;;16.83;4.10;;;;;;;14.01;100.00;98139.75;5047566;28;20115;-56
2022/06/03 00:25:23;;;;;;;21.08;4.40;;;;;;;14.11;100.00;98140.94;5047843;28;20037;-57
2022/06/03 00:28:09;;;;;;;13.75;3.30;;;;;;;14.06;100.00;98135.94;5048135;28;20031;-57
2022/06/03 00:31:05;;;;;;;17.17;3.88;;;;;;;14.30;100.00;98135.56;5047785;28;20032;-57
2022/06/03 00:33:49;;;;;;;19.17;4.20;;;;;;;14.00;100.00;98133.63;5049257;28;20040;-57
2022/06/03 00:36:45;;;;;;;17.73;3.70;;;;;;;14.03;100.00;98138.72;5047280;28;20033;-57
2022/06/03 00:39:39;;;;;;;13.45;3.45;;;;;;;13.97;100.00;98141.69;5048189;28;20025;-57
2022/06/03 00:42:48;;;;;;;18.95;3.95;;;;;;;14.10;100.00;98134.00;5045431;28;20028;-60
2022/06/03 00:45:19;;;;;;;12.85;3.42;;;;;;;14.26;100.00;98134.03;5049066;28;20081;-57
2022/06/03 00:48:03;;;;;;;12.18;3.50;;;;;;;14.19;100.00;98137.91;5050073;28;20044;-57
2022/06/03 00:50:38;;;;;;;15.88;4.00;;;;;;;13.97;100.00;98139.06;5045790;28;20036;-57
2022/06/03 00:53:21;;;;;;;15.50;3.85;;;;;;;14.02;100.00;98139.69;5045102;28;20556;-58
2022/06/03 00:55:59;;;;;;;11.25;3.30;;;;;;;14.15;100.00;98139.88;5048929;28;20045;-58
2022/06/03 00:58:56;;;;;;;13.23;3.72;;;;;;;14.21;100.00;98141.31;5047906;28;20036;-57
2022/06/03 01:01:24;;;;;;;13.68;3.60;;;;;;;14.12;100.00;98141.81;5045252;28;20694;-58
2022/06/03 01:04:18;;;;;;;14.52;2.97;;;;;;;14.21;100.00;98136.06;5050473;28;20116;-57
2022/06/03 01:07:25;;;;;;;17.10;4.18;;;;;;;14.11;100.00;98126.97;5051137;28;20802;-57
2022/06/03 01:09:50;;;;;;;15.75;4.07;;;;;;;14.19;100.00;98133.53;5051795;28;20604;-58
2022/06/03 01:12:28;;;;;;;12.18;3.40;;;;;;;14.07;100.00;98129.75;5053040;28;20499;-57
2022/06/03 01:15:30;;;;;;;14.82;3.85;;;;;;;14.10;100.00;98123.53;5052876;28;20025;-58
2022/06/03 01:18:15;;;;;;;10.98;3.47;;;;;;;14.25;100.00;98124.47;5051156;28;20091;-58
2022/06/03 01:21:00;;;;;;;12.68;3.65;;;;;;;14.12;100.00;98121.66;5050330;28;20118;-56
2022/06/03 01:23:25;;;;;;;13.38;3.75;;;;;;;14.24;100.00;98120.16;5053783;28;20024;-55
2022/06/03 01:26:09;;;;;;;15.07;3.97;;;;;;;14.05;100.00;98113.25;5052096;28;20056;-57
2022/06/03 01:28:56;;;;;;;14.10;3.47;;;;;;;14.07;100.00;98106.16;5050919;28;20464;-56
2022/06/03 01:31:37;;;;;;;11.98;3.30;;;;;;;14.04;100.00;98105.47;5049398;28;20825;-56
2022/06/03 01:34:12;;;;;;;15.48;3.88;;;;;;;14.15;100.00;98115.41;5052883;28;20033;-56
2022/06/03 01:37:02;;;;;;;15.93;4.05;;;;;;;14.00;100.00;98112.66;5051374;28;20037;-55
2022/06/03 01:39:33;;;;;;;14.93;3.75;;;;;;;14.02;100.00;98115.19;5052057;28;20033;-56
2022/06/03 01:42:18;;;;;;;15.25;4.10;;;;;;;14.07;100.00;98114.03;5049274;28;20616;-57
2022/06/03 01:45:11;;;;;;;13.25;3.60;;;;;;;14.00;100.00;98115.28;5051995;28;20032;-56
2022/06/03 01:48:01;;;;;;;13.50;3.70;;;;;;;14.14;100.00;98124.22;5050627;28;20491;-56
2022/06/03 01:50:54;;;;;;;13.90;3.72;;;;;;;14.26;100.00;98113.03;5050087;28;20059;-56
2022/06/03 01:53:25;;;;;;;12.90;3.53;;;;;;;14.25;100.00;98111.34;5050594;28;20035;-58
2022/06/03 01:56:12;;;;;;;13.98;4.03;;;;;;;14.32;100.00;98117.09;5050533;28;20372;-56
2022/06/03 01:59:02;;;;;;;15.48;3.97;;;;;;;14.22;100.00;98122.00;5048590;28;20215;-56
2022/06/03 02:02:05;;;;;;;13.10;3.55;;;;;;;14.05;100.00;98113.25;5049554;28;20041;-57
2022/06/03 02:05:04;;;;;;;12.68;3.70;;;;;;;14.24;100.00;98114.91;5052076;28;20029;-57
2022/06/03 02:07:48;;;;;;;14.70;3.90;;;;;;;14.00;100.00;98117.91;5049692;28;20072;-57
2022/06/03 02:10:23;;;;;;;18.85;4.28;;;;;;;14.19;100.00;98119.53;5049294;28;20017;-56
2022/06/03 02:13:26;;;;;;;12.73;3.65;;;;;;;14.18;100.00;98121.31;5048893;28;20068;-57
2022/06/03 02:16:10;;;;;;;14.32;4.13;;;;;;;13.88;100.00;98123.81;5050413;28;20123;-56
2022/06/03 02:18:55;;;;;;;15.73;4.13;;;;;;;14.05;100.00;98121.13;5050352;28;20040;-56
2022/06/03 02:21:48;;;;;;;14.05;3.88;;;;;;;14.04;100.00;98131.69;5048836;28;20124;-56
2022/06/03 02:24:35;;;;;;;15.40;3.92;;;;;;;14.04;100.00;98123.84;5051508;28;20061;-56
2022/06/03 02:27:22;;;;;;;16.38;4.32;;;;;;;13.98;100.00;98119.75;5048582;28;20114;-57
2022/06/03 02:30:24;;;;;;;14.95;4.22;;;;;;;14.13;100.00;98119.88;5050324;28;20021;-57
2022/06/03 02:33:02;;;;;;;15.25;4.05;;;;;;;13.85;100.00;98116.94;5052129;28;20036;-56
2022/06/03 02:35:54;;;;;;;14.68;4.00;;;;;;;13.72;100.00;98123.75;5050685;28;20048;-57
2022/06/03 02:38:32;;;;;;;;;;;;;;;13.66;100.00;98118.84;5048631;28;20370;-57
2022/06/03 02:41:12;;;;;;;17.33;4.53;;;;;;;13.72;100.00;98117.66;5047844;28;19916;-56
2022/06/03 02:44:19;;;;;;;18.95;4.72;;;;;;;13.74;100.00;98127.13;5050478;28;20043;-58
2022/06/03 02:46:44;;;;;;;15.70;4.10;;;;;;;13.77;100.00;98115.66;5050106;28;20033;-56
2022/06/03 02:49:37;;;;;;;16.02;4.30;;;;;;;13.68;100.00;98107.34;5050501;28;20086;-56
2022/06/03 02:52:22;;;;;;;14.57;4.10;;;;;;;13.72;100.00;98107.19;5048263;28;20068;-57
2022/06/03 02:55:34;;;;;;;17.10;4.65;;;;;;;13.84;100.00;98111.75;5048007;28;20175;-55
2022/06/03 02:58:20;;;;;;;14.20;4.10;;;;;;;13.87;100.00;98107.22;5046206;28;20544;-57
2022/06/03 03:00:56;;;;;;;13.75;4.07;;;;;;;13.76;100.00;98103.47;5049003;28;20152;-57
2022/06/03 03:03:41;;;;;;;11.27;3.63;;;;;;;13.69;100.00;98109.03;5050236;28;20185;-56
2022/06/03 03:06:16;;;;;;;14.35;4.20;;;;;;;13.66;100.00;98103.94;5048726;28;20039;-56
2022/06/03 03:09:07;;;;;;;16.13;4.60;;;;;;;13.43;100.00;98117.38;5048382;28;20033;-57
2022/06/03 03:12:00;;;;;;;18.70;4.15;;;;;;;13.68;100.00;98109.97;5045727;28;20049;-56
2022/06/03 03:15:00;;;;;;;13.50;3.97;;;;;;;13.63;100.00;98104.09;5050908;28;20095;-59
2022/06/03 03:17:44;;;;;;;12.23;3.80;;;;;;;13.71;100.00;98095.00;5049267;28;20687;-56
2022/06/03 03:20:09;;;;;;;17.25;4.72;;;;;;;13.48;100.00;98100.50;5049247;28;20024;-55
2022/06/03 03:22:49;;;;;;;13.75;4.20;;;;;;;13.64;100.00;98095.31;5050859;28;20032;-55
2022/06/03 03:25:29;;;;;;;15.80;4.10;;;;;;;13.59;100.00;98105.19;5047863;28;20052;-56
2022/06/03 03:28:03;;;;;;;10.70;3.75;;;;;;;13.64;100.00;98105.81;5048399;28;20029;-56
2022/06/03 03:30:29;;;;;;;13.32;3.88;;;;;;;13.68;100.00;98107.34;5048422;28;20091;-56
2022/06/03 03:33:33;;;;;;;12.95;4.10;;;;;;;13.89;100.00;98109.75;5049830;28;20029;-56
2022/06/03 03:36:18;;;;;;;12.70;4.05;;;;;;;13.97;100.00;98112.84;5048545;28;20040;-57
2022/06/03 03:38:55;;;;;;;15.80;4.50;;;;;;;13.79;100.00;98114.66;5049705;28;20052;-56
2022/06/03 03:41:38;;;;;;;15.93;4.65;;;;;;;13.96;100.00;98105.06;5048410;28;20049;-56
2022/06/03 03:44:06;;;;;;;14.90;4.60;;;;;;;13.98;100.00;98106.66;5046866;28;20739;-56
2022/06/03 03:46:46;;;;;;;14.75;3.95;;;;;;;14.13;100.00;98102.34;5051459;28;20044;-57
2022/06/03 03:49:49;;;;;;;12.20;4.25;;;;;;;14.17;100.00;98118.78;5057212;28;20017;-56
2022/06/03 03:52:33;;;;;;;19.60;4.57;;;;;;;14.31;100.00;98121.50;5049106;28;20587;-56
2022/06/03 03:55:13;;;;;;;16.45;4.55;;;;;;;14.31;100.00;98116.25;5049437;28;20036;-57
2022/06/03 03:58:15;;;;;;;15.00;4.22;;;;;;;14.64;100.00;98112.75;5046753;28;20077;-57
2022/06/03 04:00:59;;;;;;;13.73;4.10;;;;;;;14.83;100.00;98117.81;5047968;28;20040;-56
2022/06/03 04:04:03;;;;;;;13.77;4.57;;;;;;;14.58;100.00;98124.44;5057346;28;20032;-56
2022/06/03 04:06:53;;;;;;;12.05;3.80;;;;;;;14.97;100.00;98124.91;4961562;28;20038;-56
2022/06/03 04:09:39;;;;;;;10.05;3.72;;;;;;;15.06;100.00;98118.28;4978291;28;20790;-55
2022/06/03 04:12:23;;;;;;;11.10;3.90;;;;;;;14.80;100.00;98121.47;5030777;28;20040;-56
2022/06/03 04:15:38;;;;;;;12.80;4.10;;;;;;;15.01;100.00;98124.63;5048917;28;20036;-57
2022/06/03 04:18:22;;;;;;;16.15;4.38;;;;;;;15.10;100.00;98133.78;5047368;28;20367;-56
2022/06/03 04:21:09;;;;;;;13.32;4.10;;;;;;;15.27;100.00;98126.72;5046822;28;20625;-57
2022/06/03 04:24:22;;;;;;;14.75;4.53;;;;;;;15.69;100.00;98118.06;5049511;28;20119;-56
2022/06/03 04:27:18;;;;;;;14.40;4.40;;;;;;;15.71;100.00;98117.97;5008813;28;20608;-56
2022/06/03 04:30:08;;;;;;;12.02;4.07;;;;;;;16.13;100.00;98118.97;5047626;28;20020;-57
2022/06/03 04:33:03;;;;;;;11.85;3.90;;;;;;;15.89;100.00;98109.00;5048350;28;20041;-56
2022/06/03 04:36:08;;;;;;;10.18;3.67;;;;;;;16.25;100.00;98114.72;5048392;28;20033;-56
2022/06/03 04:38:51;;;;;;;13.38;4.60;;;;;;;16.45;100.00;98118.75;5047151;28;20037;-56
2022/06/03 04:41:41;;;;;;;10.55;3.95;;;;;;;16.09;100.00;98117.47;5047394;28;20102;-56
2022/06/03 04:44:35;;;;;;;9.82;3.90;;;;;;;17.15;99.43;98111.59;5048080;28;20021;-56
2022/06/03 04:47:25;;;;;;;10.65;3.42;;;;;;;17.06;100.00;98116.63;5047001;28;20044;-57
2022/06/03 04:50:11;;;;;;;15.30;4.80;;;;;;;16.82;100.00;98108.47;5048723;28;20075;-57
2022/06/03 04:52:58;;;;;;;11.00;3.88;;;;;;;17.02;100.00;98113.34;5048425;28;20493;-56
2022/06/03 04:55:38;;;;;;;10.48;4.00;;;;;;;17.44;97.84;98105.31;5047578;28;20049;-57
2022/06/03 04:58:41;;;;;;;14.68;3.75;;;;;;;19.36;76.62;98110.22;5048852;28;20518;-57
2022/06/03 05:01:06;;;;;;;;;;;;;;;18.47;77.33;98117.56;5046583;28;20045;-57
2022/06/03 05:03:41;;;;;;;9.50;3.50;;;;;;;20.68;65.85;98114.19;5049106;28;19919;-57
2022/06/03 05:06:09;;;;;;;9.57;3.58;;;;;;;20.73;62.87;98104.91;5048887;28;20045;-58
2022/06/03 05:08:56;;;;;;;10.73;3.65;;;;;;;20.66;65.36;98109.03;5046442;28;20024;-57
2022/06/03 05:11:50;;;;;;;8.57;3.45;;;;;;;20.45;62.30;98102.75;5047958;28;20080;-57
2022/06/03 05:14:40;;;;;;;12.73;3.60;;;;;;;21.16;59.03;98104.03;5047584;28;20061;-57
2022/06/03 05:17:43;;;;;;;8.75;3.30;;;;;;;20.57;59.21;98105.25;5046944;28;20044;-57
2022/06/03 05:20:30;;;;;;;10.85;4.18;;;;;;;20.30;60.74;98102.16;5046135;28;20024;-57
2022/06/03 05:23:02;;;;;;;11.30;3.70;;;;;;;20.39;61.40;98096.13;5054013;28;20119;-56
2022/06/03 05:26:21;;;;;;;8.52;3.50;;;;;;;20.47;62.92;98099.00;5055163;28;20098;-57
2022/06/03 05:29:08;;;;;;;11.75;3.80;;;;;;;20.59;59.81;98084.78;5018958;28;20056;-56
2022/06/03 05:31:40;;;;;;;8.80;3.53;;;;;;;19.91;62.41;98088.47;5047631;28;20045;-56
2022/06/03 05:34:17;;;;;;;8.95;3.50;;;;;;;21.07;59.34;98085.41;5048368;28;20094;-57
2022/06/03 05:36:53;;;;;;;11.70;4.05;;;;;;;20.09;63.23;98080.84;5046936;28;20748;-56
2022/06/03 05:39:24;;;;;;;7.63;3.50;;;;;;;19.08;66.42;98079.72;5047606;28;20040;-57
2022/06/03 05:42:27;;;;;;;9.88;3.40;;;;;;;19.44;68.38;98091.94;5049109;28;20567;-56
2022/06/03 05:45:11;;;;;;;8.10;3.40;;;;;;;21.07;60.87;98094.19;5049207;28;20029;-56
2022/06/03 05:47:51;;;;;;;8.40;3.50;;;;;;;19.42;63.51;98093.03;5045907;28;20757;-56
2022/06/03 05:50:41;;;;;;;8.05;3.50;;;;;;;20.74;60.90;98092.50;5048756;28;20033;-56
2022/06/03 05:53:21;;;;;;;8.98;3.65;;;;;;;20.45;62.49;98087.69;5050872;28;20040;-57
2022/06/03 05:55:53;;;;;;;10.40;3.47;;;;;;;20.15;63.98;98091.81;5058809;28;20660;-55
2022/06/03 05:58:27;;;;;;;8.05;3.53;;;;;;;21.09;59.76;98089.59;5051986;28;20095;-56
2022/06/03 06:01:11;;;;;;;8.38;3.47;;;;;;;22.53;54.25;98086.22;5051248;28;20442;-57
2022/06/03 06:03:48;;;;;;;12.00;3.97;;;;;;;22.00;55.65;98079.31;5050014;28;20048;-57
2022/06/03 06:06:34;;;;;;;8.20;3.33;;;;;;;22.77;55.99;98091.16;5049890;28;20044;-56
2022/06/03 06:09:02;;;;;;;8.05;3.17;;;;;;;22.17;54.50;98087.63;5048928;28;20032;-57
2022/06/03 06:11:46;;;;;;;9.60;3.45;;;;;;;24.25;51.31;98088.19;5049832;28;20062;-58
2022/06/03 06:14:20;;;;;;;7.35;3.40;;;;;;;24.31;50.75;98087.59;5051005;28;20073;-58
2022/06/03 06:16:46;;;;;;;8.40;3.17;;;;;;;25.59;47.49;98083.91;5050568;28;20052;-58
2022/06/03 06:19:44;;;;;;;7.47;3.30;;;;;;;24.06;49.06;98089.13;5050351;28;20020;-58
2022/06/03 06:22:28;;;;;;;7.47;3.30;;;;;;;25.52;46.04;98088.19;5048405;28;20911;-57
2022/06/03 06:25:10;;;;;;;7.28;2.92;;;;;;;28.60;41.17;98075.75;5050634;28;20040;-58
2022/06/03 06:27:57;;;;;;;;;;;;;;;28.40;39.90;98075.34;5049516;28;20044;-59
2022/06/03 06:31:10;;;;;;;5.82;3.00;;;;;;;28.07;40.66;98081.66;5049575;28;20694;-57
2022/06/03 06:33:50;;;;;;;5.35;2.80;;;;;;;28.64;40.00;98082.47;5020447;28;20048;-56
2022/06/03 06:36:47;;;;;;;5.88;2.78;;;;;;;28.78;39.14;98079.03;5051137;28;20127;-58
2022/06/03 06:39:26;;;;;;;4.80;2.70;;;;;;;27.92;38.81;98082.53;5047281;28;20024;-58
2022/06/03 06:42:04;;;;;;;5.30;2.70;;;;;;;28.38;38.69;98077.34;5047382;28;20059;-58
2022/06/03 06:44:49;;;;;;;5.80;2.45;;;;;;;31.20;35.54;98068.06;5048813;28;20091;-57
2022/06/03 06:47:22;;;;;;;7.38;2.40;;;;;;;30.00;36.96;98062.09;5050966;28;20041;-58
2022/06/03 06:50:24;;;;;;;4.00;2.67;;;;;;;30.11;36.60;98061.59;5048408;28;20016;-55
2022/06/03 06:52:55;;;;;;;7.28;2.60;;;;;;;31.79;34.46;98066.91;5049322;28;20604;-57
2022/06/03 06:55:38;;;;;;;5.50;2.40;;;;;;;29.72;37.27;98070.75;5049063;28;20029;-58
2022/06/03 06:58:25;;;;;;;6.15;2.42;;;;;;;32.27;33.62;98067.81;5050145;28;20086;-58
2022/06/03 07:00:53;;;;;;;10.05;2.45;;;;;;;30.75;34.26;98060.13;5048384;28;20043;-58
2022/06/03 07:03:45;;;;;;;6.85;2.90;;;;;;;30.00;35.24;98072.84;5048537;28;20021;-58
2022/06/03 07:06:38;;;;;;;6.43;2.97;;;;;;;30.72;35.19;98072.09;5046516;28;20052;-59
2022/06/03 07:09:10;;;;;;;6.15;2.67;;;;;;;31.70;34.60;98064.34;5048242;28;20078;-59
2022/06/03 07:11:44;;;;;;;;;;;;;;;30.83;34.98;98062.69;5048979;28;20487;-60
2022/06/03 07:14:21;;;;;;;6.30;3.00;;;;;;;28.90;38.37;98059.84;5048484;28;19934;-57
2022/06/03 07:20:01;;;;;;;8.85;3.00;;;;;;;29.34;37.75;98054.63;5047679;28;20216;-59
2022/06/03 07:22:35;;;;;;;7.50;2.85;;;;;;;30.17;36.31;98057.34;5048944;28;20056;-58
2022/06/03 07:25:25;;;;;;;6.20;2.85;;;;;;;31.10;36.47;98053.06;5049973;28;20031;-59
2022/06/03 07:27:50;;;;;;;5.68;2.60;;;;;;;31.66;35.68;98046.91;5047592;28;20132;-58
2022/06/03 07:30:20;;;;;;;5.55;3.05;;;;;;;30.72;36.41;98044.38;5048233;28;20585;-57
2022/06/03 07:32:58;;;;;;;6.47;2.70;;;;;;;31.34;35.77;98037.53;5048431;28;20033;-57
2022/06/03 07:35:37;;;;;;;6.45;2.90;;;;;;;31.44;35.63;98045.25;5044989;28;20102;-57
2022/06/03 07:38:23;;;;;;;5.15;2.80;;;;;;;31.82;34.79;98034.97;5055380;28;20039;-57
2022/06/03 07:41:14;;;;;;;7.65;3.10;;;;;;;31.50;36.26;98028.31;5045827;28;20514;-57
2022/06/03 07:44:15;;;;;;;7.78;2.97;;;;;;;31.91;35.91;98027.56;5048267;28;20071;-59
2022/06/03 07:46:52;;;;;;;5.00;2.72;;;;;;;32.38;34.58;98017.81;5048398;28;20036;-60
2022/06/03 07:49:21;;;;;;;5.38;2.88;;;;;;;34.88;32.75;98019.03;5049618;28;20048;-59
2022/06/03 07:52:03;;;;;;;5.15;2.42;;;;;;;35.35;31.61;98014.13;5046612;28;20040;-59
2022/06/03 07:54:35;;;;;;;5.40;2.53;;;;;;;33.17;33.61;98005.56;5049697;28;20447;-58
2022/06/03 07:57:02;;;;;;;4.38;2.38;;;;;;;35.22;32.52;98006.06;5049553;28;20113;-59
2022/06/03 07:59:31;;;;;;;4.28;2.22;;;;;;;35.08;31.98;98003.44;5048931;28;20044;-58
2022/06/03 08:02:00;;;;;;;3.70;2.35;;;;;;;34.57;33.19;98004.41;5046793;28;20688;-59
2022/06/03 08:04:29;;;;;;;4.47;2.28;;;;;;;34.58;33.63;98000.66;5049447;28;20058;-57
2022/06/03 08:12:34;;;;;;;5.45;2.30;;;;;;;36.62;30.57;97994.53;5048052;28;20040;-58
2022/06/03 08:15:12;;;;;;;3.78;2.70;;;;;;;34.56;32.21;97990.03;5046385;28;20108;-59
2022/06/03 08:17:38;;;;;;;5.47;2.33;;;;;;;36.95;30.86;97993.22;5049805;28;20122;-58
2022/06/03 08:20:04;;;;;;;6.45;2.35;;;;;;;35.08;33.15;98003.44;5045893;28;20595;-60
2022/06/03 08:22:29;;;;;;;6.35;2.55;;;;;;;34.58;34.12;97989.81;5046746;28;20032;-58
2022/06/03 08:24:59;;;;;;;6.82;2.70;;;;;;;37.85;29.03;97985.00;5048150;28;20040;-58
2022/06/03 08:27:29;;;;;;;8.73;2.50;;;;;;;38.84;28.34;97978.50;5045415;28;20037;-60
2022/06/03 08:29:59;;;;;;;5.65;2.70;;;;;;;35.92;30.64;97978.72;5046769;28;20051;-58
2022/06/03 08:32:32;;;;;;;3.50;2.30;;;;;;;35.63;30.77;97977.53;5050026;28;20094;-59
2022/06/03 08:35:00;;;;;;;4.05;2.35;;;;;;;33.43;33.51;97963.34;5048779;28;20504;-60
2022/06/03 08:37:57;;;;;;;6.18;2.50;;;;;;;36.04;30.71;97965.19;5047531;28;20125;-59
2022/06/03 08:41:04;;;;;;;5.55;2.58;;;;;;;35.41;31.33;97958.97;5039512;28;20037;-59
2022/06/03 08:44:14;;;;;;;7.47;2.80;;;;;;;36.46;30.73;97951.72;5024390;28;20037;-58
2022/06/03 08:46:55;;;;;;;5.70;2.40;;;;;;;36.36;30.54;97956.88;5049554;28;20033;-58
2022/06/03 08:49:26;;;;;;;4.65;2.53;;;;;;;33.85;32.82;97957.66;5048786;28;20070;-58
2022/06/03 08:52:05;;;;;;;5.25;2.42;;;;;;;36.48;29.96;97955.84;5048674;28;20106;-57
2022/06/03 08:54:39;;;;;;;6.78;2.60;;;;;;;34.20;32.78;97938.38;5049201;28;20456;-59
2022/06/03 08:57:16;;;;;;;5.57;2.53;;;;;;;37.27;28.84;97941.28;5047495;28;20107;-59
2022/06/03 09:00:02;;;;;;;8.05;2.80;;;;;;;34.67;32.04;97947.88;5048332;28;20927;-58
2022/06/03 09:02:38;;;;;;;6.15;3.00;;;;;;;35.77;31.35;97945.69;5048480;28;20148;-59
2022/06/03 09:05:31;;;;;;;4.75;2.28;;;;;;;34.45;33.65;97935.75;5049942;28;20031;-59
2022/06/03 09:08:13;;;;;;;5.57;2.55;;;;;;;36.53;30.15;97940.78;5048422;28;20035;-58
2022/06/03 09:10:45;;;;;;;5.28;2.50;;;;;;;36.56;29.85;97934.84;5047147;28;20072;-59
2022/06/03 09:13:26;;;;;;;4.97;2.20;;;;;;;35.24;30.83;97928.91;5049489;28;20028;-59
2022/06/03 09:15:52;;;;;;;;;;;;;;;36.72;30.19;97933.41;5047705;28;20115;-59
2022/06/03 09:18:30;;;;;;;5.03;2.40;;;;;;;34.80;32.91;97927.19;5051066;28;19916;-58
2022/06/03 09:21:00;;;;;;;4.93;2.42;;;;;;;35.82;31.63;97933.09;5046604;28;20502;-58
2022/06/03 09:23:28;;;;;;;5.13;2.28;;;;;;;34.54;33.78;97934.44;5047562;28;20020;-58
2022/06/03 09:25:57;;;;;;;4.68;2.38;;;;;;;36.30;31.88;97927.94;5048989;28;20668;-58
2022/06/03 09:28:29;;;;;;;6.22;2.63;;;;;;;36.19;32.23;97935.81;5050903;28;20021;-58
2022/06/03 09:30:57;;;;;;;7.10;2.80;;;;;;;36.93;30.63;97935.56;5045934;28;20045;-58
2022/06/03 09:33:25;;;;;;;7.78;2.72;;;;;;;36.21;30.29;97938.28;5052069;28;20102;-56
2022/06/03 09:35:54;;;;;;;9.52;2.80;;;;;;;36.60;30.12;97930.63;5051434;28;20120;-58
2022/06/03 09:38:24;;;;;;;4.90;2.60;;;;;;;33.89;33.26;97931.81;5052971;28;20028;-58
2022/06/03 09:40:52;;;;;;;4.93;2.67;;;;;;;35.33;31.49;97921.31;5050870;28;20139;-57
2022/06/03 09:43:35;;;;;;;8.80;2.50;;;;;;;36.35;30.94;97917.22;5052713;28;20041;-58
2022/06/03 09:46:03;;;;;;;7.38;2.92;;;;;;;34.43;33.98;97921.56;5050455;28;20045;-57
2022/06/03 09:48:36;;;;;;;5.28;2.65;;;;;;;35.07;33.23;97919.66;5050320;28;20020;-58
2022/06/03 09:51:09;;;;;;;9.32;2.53;;;;;;;33.71;35.86;97919.00;5048058;28;20128;-58
2022/06/03 09:53:41;;;;;;;7.30;2.92;;;;;;;35.76;32.26;97919.63;5050752;28;20043;-60
2022/06/03 09:56:07;;;;;;;;;;;;;;;34.30;33.43;97912.50;5048004;28;20414;-58
2022/06/03 09:58:34;;;;;;;8.68;2.90;;;;;;;35.47;32.69;97911.97;5049961;28;19920;-58
2022/06/03 10:01:03;;;;;;;8.35;2.58;;;;;;;34.88;32.91;97916.06;5058064;28;20586;-59
2022/06/03 10:03:28;;;;;;;5.30;2.63;;;;;;;35.17;32.80;97905.59;5049956;28;20549;-58
2022/06/03 10:05:57;;;;;;;5.60;2.38;;;;;;;34.82;33.02;97895.28;5049522;28;20554;-60
2022/06/03 10:08:28;;;;;;;7.63;2.70;;;;;;;34.89;33.25;97890.66;5049793;28;20039;-59
2022/06/03 10:13:39;;;;;;;7.95;2.60;;;;;;;35.86;31.55;97884.63;5051955;28;19962;-59
2022/06/03 10:16:08;;;;;;;7.15;2.70;;;;;;;34.47;33.49;97884.91;5048379;28;20087;-59
2022/06/03 10:18:49;;;;;;;9.77;2.80;;;;;;;35.39;32.55;97884.34;5050606;28;20081;-57
2022/06/03 10:21:14;;;;;;;7.63;2.83;;;;;;;34.93;32.99;97889.16;5050492;28;20029;-58
2022/06/03 10:23:47;;;;;;;8.57;2.75;;;;;;;34.92;32.42;97882.91;5048239;28;20029;-57
2022/06/03 10:26:27;;;;;;;9.10;3.10;;;;;;;33.61;34.81;97874.25;5045876;28;20036;-61
2022/06/03 10:28:56;;;;;;;9.30;3.17;;;;;;;33.96;34.09;97873.94;5050027;28;20032;-59
2022/06/03 10:31:29;;;;;;;9.05;3.03;;;;;;;33.85;34.47;97865.69;5050667;28;20544;-60
2022/06/03 10:33:57;;;;;;;7.05;2.80;;;;;;;35.45;32.93;97867.97;5050219;28;20025;-59
2022/06/03 10:36:36;;;;;;;5.50;2.50;;;;;;;34.90;33.10;97868.72;5051301;28;20039;-59
2022/06/03 10:39:03;;;;;;;9.10;2.72;;;;;;;35.50;32.18;97851.88;5051433;28;20135;-58
2022/06/03 10:41:41;;;;;;;7.22;2.70;;;;;;;36.25;31.93;97858.84;5051208;28;20574;-60
2022/06/03 10:44:11;;;;;;;13.38;2.80;;;;;;;34.62;33.37;97843.97;5051201;28;20037;-59
2022/06/03 10:46:36;;;;;;;6.80;2.75;;;;;;;33.72;34.73;97844.94;5052573;28;20041;-58
2022/06/03 10:49:11;;;;;;;8.55;2.90;;;;;;;35.62;31.67;97841.09;5052078;28;20437;-59
2022/06/03 11:02:41;;;;;;;12.52;2.80;;;;;;;34.76;33.46;97823.88;5049714;28;20091;-59
2022/06/03 11:05:07;;;;;;;8.43;2.90;;;;;;;33.86;34.90;97808.66;5051011;28;20029;-60
2022/06/03 11:07:33;;;;;;;11.10;3.03;;;;;;;34.61;33.23;97802.53;5051830;28;20066;-59
2022/06/03 11:10:04;;;;;;;12.75;3.45;;;;;;;34.01;33.78;97804.84;5050291;28;20413;-60
2022/06/03 11:12:31;;;;;;;10.68;3.10;;;;;;;33.98;34.72;97808.78;5050364;28;20053;-58
2022/06/03 11:14:57;;;;;;;8.75;2.75;;;;;;;34.49;33.78;97807.00;5051244;28;20037;-59
2022/06/03 11:17:33;;;;;;;10.52;2.78;;;;;;;32.25;35.58;97793.81;5050555;28;20186;-58
2022/06/03 11:19:59;;;;;;;9.90;3.50;;;;;;;34.35;33.45;97788.16;5049530;28;20115;-58
2022/06/03 11:22:34;;;;;;;6.55;2.78;;;;;;;34.45;33.70;97794.94;5048758;28;20037;-58
2022/06/03 11:25:03;;;;;;;8.85;3.22;;;;;;;33.27;35.50;97788.09;5046430;28;20055;-58
2022/06/03 11:27:41;;;;;;;7.03;3.00;;;;;;;33.65;34.85;97784.63;5047749;28;20059;-58
2022/06/03 11:30:14;;;;;;;8.90;3.00;;;;;;;32.60;36.02;97778.25;5049138;28;20047;-57
2022/06/03 11:32:43;;;;;;;9.93;2.88;;;;;;;32.45;36.10;97789.25;5049417;28;20102;-58
2022/06/03 11:35:18;;;;;;;7.18;3.20;;;;;;;32.17;37.22;97777.84;5050245;28;20028;-58
2022/06/03 11:37:52;;;;;;;6.68;3.05;;;;;;;32.13;38.67;97784.66;5049062;28;20016;-60
2022/06/03 11:40:38;;;;;;;9.25;3.00;;;;;;;31.90;38.72;97792.06;5048459;28;20655;-58
2022/06/03 11:43:19;;;;;;;9.85;3.47;;;;;;;32.27;37.37;97778.25;5050309;28;20162;-61
2022/06/03 11:46:13;;;;;;;7.47;2.97;;;;;;;32.92;37.05;97785.69;5049716;28;20775;-59
2022/06/03 11:48:42;;;;;;;9.02;3.33;;;;;;;32.22;37.18;97783.44;5046159;28;20037;-60
2022/06/03 11:51:11;;;;;;;9.45;3.33;;;;;;;31.44;38.55;97789.22;5048079;28;20449;-58
2022/06/03 11:53:47;;;;;;;10.40;3.50;;;;;;;30.78;38.97;97782.44;5049418;28;20053;-57
2022/06/03 11:56:15;;;;;;;12.20;3.30;;;;;;;31.69;40.16;97782.28;5045710;28;20040;-60
2022/06/03 11:59:13;;;;;;;9.70;3.22;;;;;;;31.63;38.72;97793.03;5048307;28;20144;-58
2022/06/03 12:01:51;;;;;;;8.27;2.80;;;;;;;32.25;36.91;97777.63;5026559;28;20048;-58
2022/06/03 12:04:36;;;;;;;10.02;3.25;;;;;;;31.86;37.93;97790.00;5049622;28;20025;-59
2022/06/03 12:07:11;;;;;;;8.02;3.08;;;;;;;31.41;38.72;97795.00;5050615;28;20040;-58
2022/06/03 12:09:45;;;;;;;9.65;3.30;;;;;;;30.88;38.51;97780.22;5048140;28;20046;-61
2022/06/03 12:15:32;;;;;;;8.43;3.13;;;;;;;30.87;39.07;97780.41;5048670;28;20071;-58
2022/06/03 12:18:14;;;;;;;7.68;3.30;;;;;;;30.87;39.98;97781.25;5048038;28;20082;-58
2022/06/03 12:20:48;;;;;;;12.32;3.47;;;;;;;30.89;38.96;97787.25;5047676;28;20032;-58
2022/06/03 12:23:33;;;;;;;15.27;3.60;;;;;;;31.20;38.34;97787.88;5048978;28;20502;-59
2022/06/03 12:25:59;;;;;;;11.45;3.38;;;;;;;31.34;38.64;97789.63;5045393;28;20046;-58
2022/06/03 12:28:24;;;;;;;11.77;4.00;;;;;;;31.51;38.85;97784.72;5044669;28;20024;-58
2022/06/03 12:31:14;;;;;;;8.63;3.15;;;;;;;31.69;37.78;97789.56;5046738;28;20264;-58
2022/06/03 12:33:50;;;;;;;11.00;3.10;;;;;;;31.91;38.46;97787.53;5049098;28;20110;-60
2022/06/03 12:36:50;;;;;;;8.68;3.40;;;;;;;31.88;37.35;97775.28;5046868;28;20470;-57
2022/06/03 12:39:23;;;;;;;8.15;2.88;;;;;;;31.50;38.63;97773.13;5046872;28;20028;-59
2022/06/03 12:41:48;;;;;;;10.93;3.58;;;;;;;31.69;38.01;97770.69;5046659;28;20049;-59
2022/06/03 12:44:55;;;;;;;10.82;3.70;;;;;;;32.21;37.60;97771.00;5048776;28;20024;-57
2022/06/03 12:47:42;;;;;;;9.60;3.15;;;;;;;31.67;37.95;97768.19;5018509;28;20052;-57
2022/06/03 12:50:07;;;;;;;14.82;3.97;;;;;;;31.98;38.11;97769.50;5044883;28;20028;-59
2022/06/03 12:52:33;;;;;;;11.53;3.10;;;;;;;31.79;37.98;97772.97;5055993;28;20032;-59
2022/06/03 12:55:17;;;;;;;9.00;3.05;;;;;;;30.62;38.49;97771.97;5046379;28;21260;-58